Airfield :
LOGIN :

Register | Disclaimer

   EN    FR    IT 

 










Legend :    VFR   Marginal VFR   IFR   Intensive IFR   Very Intensive IFR
Visi :
Ceiling :
>= 8 km
>= 3000ft
5 to 8 km
1000 to 3000 ft
1500m to 5 km
500 to 1000 ft
800 to 1500m
200 to 500 ft
< 800m
< 200 ft
Symbols :   Thunderstorms  Fog  Heavy snow  Heavy precipitations  Wind > 20 kt
SIGMETs :     Misc.  Thunderstorms  Icing  Turbulence  Mountain Waves  Volcanic Ashes






- Airport Elevation : 681 ft
- IATA code : LBA


EGNM - Leeds Bradford

CURRENT METAR :
  • 051650Z 19011KT 9999 FEW010 SCT035 19/16 Q1008

EXPIRED METARs :
  • 051620Z 19006KT 140V230 9999 FEW010 SCT035 18/16 Q1008
  • 051550Z 19008KT 150V230 9999 -SHRA SCT012 SCT036 17/15 Q1008
  • 051520Z 20009KT 180V240 9999 6000SW -RA SCT040 20/13 Q1008
  • 051450Z 19011KT 9999 -SHRA SCT037 21/13 Q1008
  • 051420Z 21016KT 9999 SCT025 21/13 Q1008

TAF TAF EGNM
Valid from the 05 at 12:00 until the 06 at 12:00 UTC


051054Z 0512/0612 21012KT 9999 SCT020
PROB30
TEMPO 0512/0517 22015G25KT
TEMPO 0515/0518 7000 RA BKN014
PROB30
TEMPO 0515/0518 4000 +RA
BECMG 0522/0601 28007KT
PROB30
TEMPO 0522/0608 BKN014
ATIS : +44 113 250 9696 (x2489)



MET'MAP, your aeronautical weather chart ! - Copyright ORBIFLY December 2007 - Disclaimer

ORBIFLY MET'MAP TEAM :

Programming & Development : Alexandra Zaïnal
Concept & original design : Baudouin d'Aumeries
Assistance for programming : Marc-Olivier Méhu
Technical & hardware support : Manuel Goepfert

Contact : metmap@orbifly.com




SOURCES & CREDITS :

   NOAA